sensor_id;sensor_type;location;lat;lon;timestamp;temperature;humidity
12115;DHT22;6121;49.810;6.418;2023-03-26T00:01:31;7.00;99.90
12115;DHT22;6121;49.810;6.418;2023-03-26T00:04:01;7.10;99.90
12115;DHT22;6121;49.810;6.418;2023-03-26T00:06:30;7.00;99.90
12115;DHT22;6121;49.810;6.418;2023-03-26T00:08:59;7.10;99.90
12115;DHT22;6121;49.810;6.418;2023-03-26T00:11:27;7.20;99.90
12115;DHT22;6121;49.810;6.418;2023-03-26T00:13:53;6.80;99.90
12115;DHT22;6121;49.810;6.418;2023-03-26T00:16:23;7.30;99.90
12115;DHT22;6121;49.810;6.418;2023-03-26T00:18:50;7.30;99.90
12115;DHT22;6121;49.810;6.418;2023-03-26T00:21:18;7.20;99.90
12115;DHT22;6121;49.810;6.418;2023-03-26T00:23:56;7.00;99.90
12115;DHT22;6121;49.810;6.418;2023-03-26T00:26:25;6.90;99.90
12115;DHT22;6121;49.810;6.418;2023-03-26T00:28:51;7.00;99.90
12115;DHT22;6121;49.810;6.418;2023-03-26T00:31:17;6.90;99.90
12115;DHT22;6121;49.810;6.418;2023-03-26T00:33:43;7.10;99.90
12115;DHT22;6121;49.810;6.418;2023-03-26T00:36:14;7.20;99.90
12115;DHT22;6121;49.810;6.418;2023-03-26T00:38:43;7.30;99.90
12115;DHT22;6121;49.810;6.418;2023-03-26T00:41:15;7.30;99.90
12115;DHT22;6121;49.810;6.418;2023-03-26T00:43:49;7.30;99.90
12115;DHT22;6121;49.810;6.418;2023-03-26T00:46:16;7.40;99.90
12115;DHT22;6121;49.810;6.418;2023-03-26T00:48:43;7.40;99.90
12115;DHT22;6121;49.810;6.418;2023-03-26T00:51:10;7.40;99.90
12115;DHT22;6121;49.810;6.418;2023-03-26T00:53:37;7.40;99.90
12115;DHT22;6121;49.810;6.418;2023-03-26T00:56:05;7.30;99.90
12115;DHT22;6121;49.810;6.418;2023-03-26T00:58:32;7.20;99.90
12115;DHT22;6121;49.810;6.418;2023-03-26T01:01:01;7.40;99.90
12115;DHT22;6121;49.810;6.418;2023-03-26T01:03:30;7.40;99.90
12115;DHT22;6121;49.810;6.418;2023-03-26T01:05:59;7.50;99.90
12115;DHT22;6121;49.810;6.418;2023-03-26T01:08:37;7.50;99.90
12115;DHT22;6121;49.810;6.418;2023-03-26T01:11:11;7.60;99.90
12115;DHT22;6121;49.810;6.418;2023-03-26T01:13:50;7.60;99.90
12115;DHT22;6121;49.810;6.418;2023-03-26T01:16:46;7.60;99.90
12115;DHT22;6121;49.810;6.418;2023-03-26T01:21:45;7.20;99.90
12115;DHT22;6121;49.810;6.418;2023-03-26T01:24:11;7.40;99.90
12115;DHT22;6121;49.810;6.418;2023-03-26T01:26:49;7.20;99.90
12115;DHT22;6121;49.810;6.418;2023-03-26T01:29:44;7.20;99.90
12115;DHT22;6121;49.810;6.418;2023-03-26T01:37:37;7.50;99.90
12115;DHT22;6121;49.810;6.418;2023-03-26T01:40:33;7.50;99.90
12115;DHT22;6121;49.810;6.418;2023-03-26T01:46:00;7.40;99.90
12115;DHT22;6121;49.810;6.418;2023-03-26T01:48:49;7.60;99.90
12115;DHT22;6121;49.810;6.418;2023-03-26T01:51:28;7.50;99.90
12115;DHT22;6121;49.810;6.418;2023-03-26T01:53:55;7.50;99.90
12115;DHT22;6121;49.810;6.418;2023-03-26T01:56:47;7.40;99.90
12115;DHT22;6121;49.810;6.418;2023-03-26T02:02:05;7.40;99.90
12115;DHT22;6121;49.810;6.418;2023-03-26T02:04:49;7.30;99.90
12115;DHT22;6121;49.810;6.418;2023-03-26T02:07:38;7.30;99.90
12115;DHT22;6121;49.810;6.418;2023-03-26T02:10:14;7.30;99.90
12115;DHT22;6121;49.810;6.418;2023-03-26T02:12:42;7.40;99.90
12115;DHT22;6121;49.810;6.418;2023-03-26T02:15:10;7.40;99.90
12115;DHT22;6121;49.810;6.418;2023-03-26T02:17:36;7.30;99.90
12115;DHT22;6121;49.810;6.418;2023-03-26T02:20:08;7.30;99.90
12115;DHT22;6121;49.810;6.418;2023-03-26T02:22:38;7.20;99.90
12115;DHT22;6121;49.810;6.418;2023-03-26T02:25:15;7.10;99.90
12115;DHT22;6121;49.810;6.418;2023-03-26T02:27:44;7.00;99.90
12115;DHT22;6121;49.810;6.418;2023-03-26T02:30:14;6.80;99.90
12115;DHT22;6121;49.810;6.418;2023-03-26T02:32:42;7.00;99.90
12115;DHT22;6121;49.810;6.418;2023-03-26T02:35:11;7.20;99.90
12115;DHT22;6121;49.810;6.418;2023-03-26T02:37:37;7.30;99.90
12115;DHT22;6121;49.810;6.418;2023-03-26T02:40:12;7.30;99.90
12115;DHT22;6121;49.810;6.418;2023-03-26T02:42:41;7.50;99.90
12115;DHT22;6121;49.810;6.418;2023-03-26T02:45:07;7.50;99.90
12115;DHT22;6121;49.810;6.418;2023-03-26T02:47:52;7.50;99.90
12115;DHT22;6121;49.810;6.418;2023-03-26T02:50:36;7.50;99.90
12115;DHT22;6121;49.810;6.418;2023-03-26T02:53:24;7.40;99.90
12115;DHT22;6121;49.810;6.418;2023-03-26T02:56:13;7.40;99.90
12115;DHT22;6121;49.810;6.418;2023-03-26T02:58:48;7.50;99.90
12115;DHT22;6121;49.810;6.418;2023-03-26T03:01:15;7.50;99.90
12115;DHT22;6121;49.810;6.418;2023-03-26T03:03:49;7.30;99.90
12115;DHT22;6121;49.810;6.418;2023-03-26T03:06:33;7.30;99.90
12115;DHT22;6121;49.810;6.418;2023-03-26T03:08:59;7.40;99.90
12115;DHT22;6121;49.810;6.418;2023-03-26T03:11:33;7.20;99.90
12115;DHT22;6121;49.810;6.418;2023-03-26T03:13:59;7.20;99.90
12115;DHT22;6121;49.810;6.418;2023-03-26T03:16:28;7.20;99.90
12115;DHT22;6121;49.810;6.418;2023-03-26T03:18:56;7.30;99.90
12115;DHT22;6121;49.810;6.418;2023-03-26T03:21:26;7.40;99.90
12115;DHT22;6121;49.810;6.418;2023-03-26T03:23:54;7.30;99.90
12115;DHT22;6121;49.810;6.418;2023-03-26T03:26:31;7.20;99.90
12115;DHT22;6121;49.810;6.418;2023-03-26T03:29:08;7.00;99.90
12115;DHT22;6121;49.810;6.418;2023-03-26T03:31:34;6.80;99.90
12115;DHT22;6121;49.810;6.418;2023-03-26T03:34:04;6.80;99.90
12115;DHT22;6121;49.810;6.418;2023-03-26T03:36:33;6.80;99.90
12115;DHT22;6121;49.810;6.418;2023-03-26T03:39:09;7.10;99.90
12115;DHT22;6121;49.810;6.418;2023-03-26T03:41:36;7.10;99.90
12115;DHT22;6121;49.810;6.418;2023-03-26T03:44:05;7.20;99.90
12115;DHT22;6121;49.810;6.418;2023-03-26T03:46:32;7.30;99.90
12115;DHT22;6121;49.810;6.418;2023-03-26T03:48:58;7.30;99.90
12115;DHT22;6121;49.810;6.418;2023-03-26T03:51:29;7.40;99.90
12115;DHT22;6121;49.810;6.418;2023-03-26T03:53:57;7.40;99.90
12115;DHT22;6121;49.810;6.418;2023-03-26T03:56:38;7.40;99.90
12115;DHT22;6121;49.810;6.418;2023-03-26T03:59:30;7.40;99.90
12115;DHT22;6121;49.810;6.418;2023-03-26T04:01:56;7.30;99.90
12115;DHT22;6121;49.810;6.418;2023-03-26T04:04:30;7.40;99.90
12115;DHT22;6121;49.810;6.418;2023-03-26T04:06:59;7.50;99.90
12115;DHT22;6121;49.810;6.418;2023-03-26T04:09:30;7.60;99.90
12115;DHT22;6121;49.810;6.418;2023-03-26T04:12:00;7.60;99.90
12115;DHT22;6121;49.810;6.418;2023-03-26T04:14:41;7.60;99.90
12115;DHT22;6121;49.810;6.418;2023-03-26T04:17:13;7.60;99.90
12115;DHT22;6121;49.810;6.418;2023-03-26T04:19:41;7.40;99.90
12115;DHT22;6121;49.810;6.418;2023-03-26T04:22:11;7.20;99.90
12115;DHT22;6121;49.810;6.418;2023-03-26T04:24:49;7.30;99.90
12115;DHT22;6121;49.810;6.418;2023-03-26T04:27:44;7.30;99.90
12115;DHT22;6121;49.810;6.418;2023-03-26T04:30:32;7.50;99.90
12115;DHT22;6121;49.810;6.418;2023-03-26T04:33:13;7.60;99.90
12115;DHT22;6121;49.810;6.418;2023-03-26T04:35:40;7.50;99.90
12115;DHT22;6121;49.810;6.418;2023-03-26T04:38:10;7.60;99.90
12115;DHT22;6121;49.810;6.418;2023-03-26T04:40:42;7.70;99.90
12115;DHT22;6121;49.810;6.418;2023-03-26T04:43:32;7.70;99.90
12115;DHT22;6121;49.810;6.418;2023-03-26T04:46:18;7.60;99.90
12115;DHT22;6121;49.810;6.418;2023-03-26T04:48:57;7.80;99.90
12115;DHT22;6121;49.810;6.418;2023-03-26T04:51:25;7.70;99.90
12115;DHT22;6121;49.810;6.418;2023-03-26T04:53:55;7.70;99.90
12115;DHT22;6121;49.810;6.418;2023-03-26T04:56:37;7.60;99.90
12115;DHT22;6121;49.810;6.418;2023-03-26T04:59:33;7.60;99.90
12115;DHT22;6121;49.810;6.418;2023-03-26T05:02:05;7.70;99.90
12115;DHT22;6121;49.810;6.418;2023-03-26T05:04:40;7.70;99.90
12115;DHT22;6121;49.810;6.418;2023-03-26T05:07:10;7.80;99.90
12115;DHT22;6121;49.810;6.418;2023-03-26T05:09:42;7.80;99.90
12115;DHT22;6121;49.810;6.418;2023-03-26T05:12:14;7.90;99.90
12115;DHT22;6121;49.810;6.418;2023-03-26T05:15:01;7.90;99.90
12115;DHT22;6121;49.810;6.418;2023-03-26T05:17:53;7.90;99.90
12115;DHT22;6121;49.810;6.418;2023-03-26T05:20:30;7.70;99.90
12115;DHT22;6121;49.810;6.418;2023-03-26T05:22:57;7.70;99.90
12115;DHT22;6121;49.810;6.418;2023-03-26T05:25:35;7.70;99.90
12115;DHT22;6121;49.810;6.418;2023-03-26T05:28:03;7.80;99.90
12115;DHT22;6121;49.810;6.418;2023-03-26T05:30:41;7.80;99.90
12115;DHT22;6121;49.810;6.418;2023-03-26T05:33:09;7.90;99.90
12115;DHT22;6121;49.810;6.418;2023-03-26T05:35:43;7.90;99.90
12115;DHT22;6121;49.810;6.418;2023-03-26T05:38:10;7.90;99.90
12115;DHT22;6121;49.810;6.418;2023-03-26T05:40:35;7.60;99.90
12115;DHT22;6121;49.810;6.418;2023-03-26T05:43:03;7.50;99.90
12115;DHT22;6121;49.810;6.418;2023-03-26T05:45:47;7.70;99.90
12115;DHT22;6121;49.810;6.418;2023-03-26T05:48:33;7.40;99.90
12115;DHT22;6121;49.810;6.418;2023-03-26T05:50:59;7.40;99.90
12115;DHT22;6121;49.810;6.418;2023-03-26T05:53:27;7.50;99.90
12115;DHT22;6121;49.810;6.418;2023-03-26T05:56:12;7.60;99.90
12115;DHT22;6121;49.810;6.418;2023-03-26T05:58:57;7.70;99.90
12115;DHT22;6121;49.810;6.418;2023-03-26T06:01:49;7.80;99.90
12115;DHT22;6121;49.810;6.418;2023-03-26T06:04:44;7.90;99.90
12115;DHT22;6121;49.810;6.418;2023-03-26T06:07:32;7.90;99.90
12115;DHT22;6121;49.810;6.418;2023-03-26T06:10:17;8.00;99.90
12115;DHT22;6121;49.810;6.418;2023-03-26T06:12:44;8.10;99.90
12115;DHT22;6121;49.810;6.418;2023-03-26T06:15:10;8.00;99.90
12115;DHT22;6121;49.810;6.418;2023-03-26T06:17:45;8.00;99.90
12115;DHT22;6121;49.810;6.418;2023-03-26T06:20:31;8.10;99.90
12115;DHT22;6121;49.810;6.418;2023-03-26T06:22:58;8.10;99.90
12115;DHT22;6121;49.810;6.418;2023-03-26T06:25:52;8.10;99.90
12115;DHT22;6121;49.810;6.418;2023-03-26T06:28:40;8.20;99.90
12115;DHT22;6121;49.810;6.418;2023-03-26T06:31:28;7.90;99.90
12115;DHT22;6121;49.810;6.418;2023-03-26T06:34:09;8.00;99.90
12115;DHT22;6121;49.810;6.418;2023-03-26T06:36:35;8.00;99.90
12115;DHT22;6121;49.810;6.418;2023-03-26T06:39:01;8.00;99.90
12115;DHT22;6121;49.810;6.418;2023-03-26T06:41:28;8.10;99.90
12115;DHT22;6121;49.810;6.418;2023-03-26T06:44:14;8.00;99.90
12115;DHT22;6121;49.810;6.418;2023-03-26T06:47:03;7.90;99.90
12115;DHT22;6121;49.810;6.418;2023-03-26T06:49:48;8.00;99.90
12115;DHT22;6121;49.810;6.418;2023-03-26T06:52:32;7.90;99.90
12115;DHT22;6121;49.810;6.418;2023-03-26T06:55:09;7.70;99.90
12115;DHT22;6121;49.810;6.418;2023-03-26T06:58:02;7.70;99.90
12115;DHT22;6121;49.810;6.418;2023-03-26T07:00:51;7.70;99.90
12115;DHT22;6121;49.810;6.418;2023-03-26T07:03:36;7.60;99.90
12115;DHT22;6121;49.810;6.418;2023-03-26T07:06:20;7.70;99.90
12115;DHT22;6121;49.810;6.418;2023-03-26T07:09:18;7.70;99.90
12115;DHT22;6121;49.810;6.418;2023-03-26T07:12:03;7.90;99.90
12115;DHT22;6121;49.810;6.418;2023-03-26T07:14:48;7.80;99.90
12115;DHT22;6121;49.810;6.418;2023-03-26T07:17:32;8.00;99.90
12115;DHT22;6121;49.810;6.418;2023-03-26T07:20:21;7.80;99.90
12115;DHT22;6121;49.810;6.418;2023-03-26T07:22:47;8.00;99.90
12115;DHT22;6121;49.810;6.418;2023-03-26T07:25:28;8.20;99.90
12115;DHT22;6121;49.810;6.418;2023-03-26T07:28:30;8.20;99.90
12115;DHT22;6121;49.810;6.418;2023-03-26T07:31:44;8.20;99.90
12115;DHT22;6121;49.810;6.418;2023-03-26T07:34:53;8.00;99.90
12115;DHT22;6121;49.810;6.418;2023-03-26T07:38:12;8.20;99.90
12115;DHT22;6121;49.810;6.418;2023-03-26T07:47:36;8.50;99.90
12115;DHT22;6121;49.810;6.418;2023-03-26T07:50:16;8.50;99.90
12115;DHT22;6121;49.810;6.418;2023-03-26T07:53:04;8.40;99.90
12115;DHT22;6121;49.810;6.418;2023-03-26T07:56:25;8.30;99.90
12115;DHT22;6121;49.810;6.418;2023-03-26T07:59:26;8.70;99.90
12115;DHT22;6121;49.810;6.418;2023-03-26T08:05:32;8.80;99.90
12115;DHT22;6121;49.810;6.418;2023-03-26T08:08:44;9.00;99.90
12115;DHT22;6121;49.810;6.418;2023-03-26T08:12:05;8.60;99.90
12115;DHT22;6121;49.810;6.418;2023-03-26T08:14:47;8.70;99.90
12115;DHT22;6121;49.810;6.418;2023-03-26T08:20:38;8.80;99.90
12115;DHT22;6121;49.810;6.418;2023-03-26T08:25:58;8.90;99.90
12115;DHT22;6121;49.810;6.418;2023-03-26T08:31:14;9.00;99.90
12115;DHT22;6121;49.810;6.418;2023-03-26T08:33:43;9.20;99.90
12115;DHT22;6121;49.810;6.418;2023-03-26T08:36:10;8.90;99.90
12115;DHT22;6121;49.810;6.418;2023-03-26T08:38:36;8.40;99.90
12115;DHT22;6121;49.810;6.418;2023-03-26T08:58:02;10.40;99.90
12115;DHT22;6121;49.810;6.418;2023-03-26T09:06:26;11.80;99.90
12115;DHT22;6121;49.810;6.418;2023-03-26T09:12:03;12.30;99.90
12115;DHT22;6121;49.810;6.418;2023-03-26T09:14:44;12.80;99.90
12115;DHT22;6121;49.810;6.418;2023-03-26T09:26:07;13.50;99.90
12115;DHT22;6121;49.810;6.418;2023-03-26T09:32:00;13.90;99.90
12115;DHT22;6121;49.810;6.418;2023-03-26T10:00:17;13.70;99.90
12115;DHT22;6121;49.810;6.418;2023-03-26T10:09:04;14.00;99.90
12115;DHT22;6121;49.810;6.418;2023-03-26T10:14:38;13.60;99.90
12115;DHT22;6121;49.810;6.418;2023-03-26T10:20:18;13.20;99.90
12115;DHT22;6121;49.810;6.418;2023-03-26T10:29:01;13.20;99.90
12115;DHT22;6121;49.810;6.418;2023-03-26T10:34:20;12.90;99.90
12115;DHT22;6121;49.810;6.418;2023-03-26T10:37:00;12.80;99.90
12115;DHT22;6121;49.810;6.418;2023-03-26T10:50:53;12.50;99.90
12115;DHT22;6121;49.810;6.418;2023-03-26T10:56:30;14.10;99.90
12115;DHT22;6121;49.810;6.418;2023-03-26T10:58:59;13.90;99.90
12115;DHT22;6121;49.810;6.418;2023-03-26T11:08:02;18.30;99.60
12115;DHT22;6121;49.810;6.418;2023-03-26T11:11:02;17.30;99.90
12115;DHT22;6121;49.810;6.418;2023-03-26T11:19:10;18.50;95.60
12115;DHT22;6121;49.810;6.418;2023-03-26T11:24:43;15.90;97.60
12115;DHT22;6121;49.810;6.418;2023-03-26T11:32:43;16.30;99.90
12115;DHT22;6121;49.810;6.418;2023-03-26T11:37:49;25.90;91.80
12115;DHT22;6121;49.810;6.418;2023-03-26T11:40:28;28.10;81.60
12115;DHT22;6121;49.810;6.418;2023-03-26T11:42:59;28.70;74.20
12115;DHT22;6121;49.810;6.418;2023-03-26T11:45:31;28.60;71.50
12115;DHT22;6121;49.810;6.418;2023-03-26T11:48:24;30.20;68.60
12115;DHT22;6121;49.810;6.418;2023-03-26T11:50:58;28.90;68.30
12115;DHT22;6121;49.810;6.418;2023-03-26T11:53:28;28.70;65.30
12115;DHT22;6121;49.810;6.418;2023-03-26T11:56:23;28.30;65.70
12115;DHT22;6121;49.810;6.418;2023-03-26T11:59:09;27.10;65.80
12115;DHT22;6121;49.810;6.418;2023-03-26T12:01:46;23.00;71.60
12115;DHT22;6121;49.810;6.418;2023-03-26T12:04:17;20.70;76.60
12115;DHT22;6121;49.810;6.418;2023-03-26T12:06:57;19.90;80.10
12115;DHT22;6121;49.810;6.418;2023-03-26T12:09:25;18.10;83.30
12115;DHT22;6121;49.810;6.418;2023-03-26T12:11:59;16.90;85.10
12115;DHT22;6121;49.810;6.418;2023-03-26T12:14:26;17.20;88.20
12115;DHT22;6121;49.810;6.418;2023-03-26T12:17:10;17.40;89.10
12115;DHT22;6121;49.810;6.418;2023-03-26T12:19:39;17.80;88.10
12115;DHT22;6121;49.810;6.418;2023-03-26T12:22:25;16.90;87.50
12115;DHT22;6121;49.810;6.418;2023-03-26T12:25:02;15.70;89.80
12115;DHT22;6121;49.810;6.418;2023-03-26T12:27:28;15.80;91.10
12115;DHT22;6121;49.810;6.418;2023-03-26T12:30:18;15.70;90.70
12115;DHT22;6121;49.810;6.418;2023-03-26T12:32:44;15.60;90.70
12115;DHT22;6121;49.810;6.418;2023-03-26T12:35:17;14.30;93.00
12115;DHT22;6121;49.810;6.418;2023-03-26T12:37:45;14.80;93.80
12115;DHT22;6121;49.810;6.418;2023-03-26T12:40:32;14.50;94.20
12115;DHT22;6121;49.810;6.418;2023-03-26T12:43:03;14.20;94.70
12115;DHT22;6121;49.810;6.418;2023-03-26T12:45:37;14.70;95.00
12115;DHT22;6121;49.810;6.418;2023-03-26T12:48:04;14.90;94.30
12115;DHT22;6121;49.810;6.418;2023-03-26T12:50:51;14.90;94.60
12115;DHT22;6121;49.810;6.418;2023-03-26T12:53:36;14.40;94.60
12115;DHT22;6121;49.810;6.418;2023-03-26T12:59:00;14.30;95.20
12115;DHT22;6121;49.810;6.418;2023-03-26T13:04:19;14.70;96.20
12115;DHT22;6121;49.810;6.418;2023-03-26T13:06:51;14.20;96.10
12115;DHT22;6121;49.810;6.418;2023-03-26T13:12:14;15.10;95.90
12115;DHT22;6121;49.810;6.418;2023-03-26T13:15:02;15.40;95.10
12115;DHT22;6121;49.810;6.418;2023-03-26T13:17:56;14.90;95.20
12115;DHT22;6121;49.810;6.418;2023-03-26T13:23:14;14.80;95.30
12115;DHT22;6121;49.810;6.418;2023-03-26T13:29:28;14.50;95.20
12115;DHT22;6121;49.810;6.418;2023-03-26T13:31:55;13.90;98.10
12115;DHT22;6121;49.810;6.418;2023-03-26T13:37:50;13.00;99.90
12115;DHT22;6121;49.810;6.418;2023-03-26T13:40:43;12.50;99.90
12115;DHT22;6121;49.810;6.418;2023-03-26T13:45:50;12.80;99.90
12115;DHT22;6121;49.810;6.418;2023-03-26T13:48:23;13.10;99.90
12115;DHT22;6121;49.810;6.418;2023-03-26T13:51:39;13.20;99.90
12115;DHT22;6121;49.810;6.418;2023-03-26T13:53:46;13.30;99.90
12115;DHT22;6121;49.810;6.418;2023-03-26T13:56:18;13.00;99.90
12115;DHT22;6121;49.810;6.418;2023-03-26T13:58:46;13.20;99.90
12115;DHT22;6121;49.810;6.418;2023-03-26T14:01:30;13.20;99.90
12115;DHT22;6121;49.810;6.418;2023-03-26T14:04:22;13.10;99.90
12115;DHT22;6121;49.810;6.418;2023-03-26T14:07:05;13.00;99.90
12115;DHT22;6121;49.810;6.418;2023-03-26T14:09:57;12.90;99.90
12115;DHT22;6121;49.810;6.418;2023-03-26T14:12:39;12.40;99.90
12115;DHT22;6121;49.810;6.418;2023-03-26T14:15:47;12.30;99.90
12115;DHT22;6121;49.810;6.418;2023-03-26T14:18:19;11.20;99.90
12115;DHT22;6121;49.810;6.418;2023-03-26T14:24:04;10.60;99.90
12115;DHT22;6121;49.810;6.418;2023-03-26T14:35:51;10.00;99.90
12115;DHT22;6121;49.810;6.418;2023-03-26T14:44:07;10.20;99.90
12115;DHT22;6121;49.810;6.418;2023-03-26T14:47:20;10.40;99.90
12115;DHT22;6121;49.810;6.418;2023-03-26T14:52:51;10.60;99.90
12115;DHT22;6121;49.810;6.418;2023-03-26T15:01:23;10.70;99.90
12115;DHT22;6121;49.810;6.418;2023-03-26T15:12:28;10.70;99.90
12115;DHT22;6121;49.810;6.418;2023-03-26T15:15:17;10.50;99.90
12115;DHT22;6121;49.810;6.418;2023-03-26T15:17:55;10.60;99.90
12115;DHT22;6121;49.810;6.418;2023-03-26T15:45:35;10.70;99.90
12115;DHT22;6121;49.810;6.418;2023-03-26T15:54:16;10.50;99.90
12115;DHT22;6121;49.810;6.418;2023-03-26T15:56:57;10.50;99.90
12115;DHT22;6121;49.810;6.418;2023-03-26T16:00:11;10.50;99.90
12115;DHT22;6121;49.810;6.418;2023-03-26T16:02:29;10.80;99.90
12115;DHT22;6121;49.810;6.418;2023-03-26T16:07:58;10.50;99.90
12115;DHT22;6121;49.810;6.418;2023-03-26T16:13:38;10.50;99.90
12115;DHT22;6121;49.810;6.418;2023-03-26T16:21:59;10.30;99.90
12115;DHT22;6121;49.810;6.418;2023-03-26T16:24:39;10.10;99.90
12115;DHT22;6121;49.810;6.418;2023-03-26T16:27:06;10.30;99.90
12115;DHT22;6121;49.810;6.418;2023-03-26T16:32:32;10.20;99.90
12115;DHT22;6121;49.810;6.418;2023-03-26T16:35:24;10.10;99.90
12115;DHT22;6121;49.810;6.418;2023-03-26T16:37:48;9.90;99.90
12115;DHT22;6121;49.810;6.418;2023-03-26T16:43:00;9.70;99.90
12115;DHT22;6121;49.810;6.418;2023-03-26T16:57:09;10.10;99.90
12115;DHT22;6121;49.810;6.418;2023-03-26T17:02:42;10.00;99.90
12115;DHT22;6121;49.810;6.418;2023-03-26T17:05:31;10.00;99.90
12115;DHT22;6121;49.810;6.418;2023-03-26T17:10:55;9.80;99.90
12115;DHT22;6121;49.810;6.418;2023-03-26T17:13:43;9.70;99.90
12115;DHT22;6121;49.810;6.418;2023-03-26T17:16:26;9.80;99.90
12115;DHT22;6121;49.810;6.418;2023-03-26T17:19:01;9.80;99.90
12115;DHT22;6121;49.810;6.418;2023-03-26T17:33:05;9.40;99.90
12115;DHT22;6121;49.810;6.418;2023-03-26T17:35:39;9.50;99.90
12115;DHT22;6121;49.810;6.418;2023-03-26T17:40:57;9.40;99.90
12115;DHT22;6121;49.810;6.418;2023-03-26T17:43:47;9.50;99.90
12115;DHT22;6121;49.810;6.418;2023-03-26T17:46:27;9.60;99.90
12115;DHT22;6121;49.810;6.418;2023-03-26T17:54:42;9.10;99.90
12115;DHT22;6121;49.810;6.418;2023-03-26T17:57:28;9.10;99.90
12115;DHT22;6121;49.810;6.418;2023-03-26T17:59:58;9.00;99.90
12115;DHT22;6121;49.810;6.418;2023-03-26T18:02:37;9.00;99.90
12115;DHT22;6121;49.810;6.418;2023-03-26T18:05:12;9.00;99.90
12115;DHT22;6121;49.810;6.418;2023-03-26T18:08:10;9.20;99.90
12115;DHT22;6121;49.810;6.418;2023-03-26T18:14:20;9.00;99.90
12115;DHT22;6121;49.810;6.418;2023-03-26T18:16:59;8.70;99.90
12115;DHT22;6121;49.810;6.418;2023-03-26T18:19:26;9.20;99.90
12115;DHT22;6121;49.810;6.418;2023-03-26T18:21:56;8.80;99.90
12115;DHT22;6121;49.810;6.418;2023-03-26T18:24:31;8.80;99.90
12115;DHT22;6121;49.810;6.418;2023-03-26T18:27:10;8.80;99.90
12115;DHT22;6121;49.810;6.418;2023-03-26T18:29:42;9.10;99.90
12115;DHT22;6121;49.810;6.418;2023-03-26T18:34:38;9.50;99.90
12115;DHT22;6121;49.810;6.418;2023-03-26T18:39:36;9.30;99.90
12115;DHT22;6121;49.810;6.418;2023-03-26T18:42:04;8.90;99.90
12115;DHT22;6121;49.810;6.418;2023-03-26T18:44:33;9.00;99.90
12115;DHT22;6121;49.810;6.418;2023-03-26T18:47:04;9.10;99.90
12115;DHT22;6121;49.810;6.418;2023-03-26T18:49:31;9.20;99.90
12115;DHT22;6121;49.810;6.418;2023-03-26T18:51:57;8.80;99.90
12115;DHT22;6121;49.810;6.418;2023-03-26T18:54:22;8.90;99.90
12115;DHT22;6121;49.810;6.418;2023-03-26T18:56:49;8.70;99.90
12115;DHT22;6121;49.810;6.418;2023-03-26T18:59:26;8.80;99.90
12115;DHT22;6121;49.810;6.418;2023-03-26T19:02:18;8.70;99.90
12115;DHT22;6121;49.810;6.418;2023-03-26T19:04:43;8.80;99.90
12115;DHT22;6121;49.810;6.418;2023-03-26T19:07:12;9.10;99.90
12115;DHT22;6121;49.810;6.418;2023-03-26T19:09:40;9.00;99.90
12115;DHT22;6121;49.810;6.418;2023-03-26T19:12:14;9.00;99.90
12115;DHT22;6121;49.810;6.418;2023-03-26T19:17:19;9.10;99.90
12115;DHT22;6121;49.810;6.418;2023-03-26T19:19:48;8.80;99.90
12115;DHT22;6121;49.810;6.418;2023-03-26T19:22:15;8.80;99.90
12115;DHT22;6121;49.810;6.418;2023-03-26T19:24:41;8.80;99.90
12115;DHT22;6121;49.810;6.418;2023-03-26T19:27:09;9.00;99.90
12115;DHT22;6121;49.810;6.418;2023-03-26T19:29:34;9.00;99.90
12115;DHT22;6121;49.810;6.418;2023-03-26T19:32:18;9.00;99.90
12115;DHT22;6121;49.810;6.418;2023-03-26T19:34:46;8.90;99.90
12115;DHT22;6121;49.810;6.418;2023-03-26T19:44:45;8.90;99.90
12115;DHT22;6121;49.810;6.418;2023-03-26T19:47:17;8.90;99.90
12115;DHT22;6121;49.810;6.418;2023-03-26T19:49:54;8.90;99.90
12115;DHT22;6121;49.810;6.418;2023-03-26T19:52:23;8.80;99.90
12115;DHT22;6121;49.810;6.418;2023-03-26T19:57:21;8.80;99.90
12115;DHT22;6121;49.810;6.418;2023-03-26T19:59:49;8.90;99.90
12115;DHT22;6121;49.810;6.418;2023-03-26T20:02:15;8.90;99.90
12115;DHT22;6121;49.810;6.418;2023-03-26T20:04:41;8.90;99.90
12115;DHT22;6121;49.810;6.418;2023-03-26T20:07:12;8.90;99.90
12115;DHT22;6121;49.810;6.418;2023-03-26T20:09:42;8.70;99.90
12115;DHT22;6121;49.810;6.418;2023-03-26T20:12:11;8.70;99.90
12115;DHT22;6121;49.810;6.418;2023-03-26T20:14:37;8.80;99.90
12115;DHT22;6121;49.810;6.418;2023-03-26T20:17:10;8.80;99.90
12115;DHT22;6121;49.810;6.418;2023-03-26T20:19:36;8.80;99.90
12115;DHT22;6121;49.810;6.418;2023-03-26T20:22:04;8.80;99.90
12115;DHT22;6121;49.810;6.418;2023-03-26T20:24:32;8.80;99.90
12115;DHT22;6121;49.810;6.418;2023-03-26T20:26:59;8.50;99.90
12115;DHT22;6121;49.810;6.418;2023-03-26T20:29:25;8.30;99.90
12115;DHT22;6121;49.810;6.418;2023-03-26T20:31:52;8.30;99.90
12115;DHT22;6121;49.810;6.418;2023-03-26T20:34:21;8.40;99.90
12115;DHT22;6121;49.810;6.418;2023-03-26T20:36:48;8.50;99.90
12115;DHT22;6121;49.810;6.418;2023-03-26T20:39:23;8.40;99.90
12115;DHT22;6121;49.810;6.418;2023-03-26T20:41:50;8.50;99.90
12115;DHT22;6121;49.810;6.418;2023-03-26T20:44:18;8.50;99.90
12115;DHT22;6121;49.810;6.418;2023-03-26T20:46:45;8.90;99.90
12115;DHT22;6121;49.810;6.418;2023-03-26T20:49:11;8.60;99.90
12115;DHT22;6121;49.810;6.418;2023-03-26T20:51:39;8.30;99.90
12115;DHT22;6121;49.810;6.418;2023-03-26T20:54:21;8.50;99.90
12115;DHT22;6121;49.810;6.418;2023-03-26T20:56:48;8.50;99.90
12115;DHT22;6121;49.810;6.418;2023-03-26T20:59:20;8.50;99.90
12115;DHT22;6121;49.810;6.418;2023-03-26T21:01:47;8.50;99.90
12115;DHT22;6121;49.810;6.418;2023-03-26T21:04:13;8.70;99.90
12115;DHT22;6121;49.810;6.418;2023-03-26T21:06:41;8.70;99.90
12115;DHT22;6121;49.810;6.418;2023-03-26T21:09:15;8.70;99.90
12115;DHT22;6121;49.810;6.418;2023-03-26T21:12:04;8.70;99.90
12115;DHT22;6121;49.810;6.418;2023-03-26T21:14:36;8.70;99.90
12115;DHT22;6121;49.810;6.418;2023-03-26T21:17:10;8.60;99.90
12115;DHT22;6121;49.810;6.418;2023-03-26T21:19:36;8.50;99.90
12115;DHT22;6121;49.810;6.418;2023-03-26T21:22:24;8.50;99.90
12115;DHT22;6121;49.810;6.418;2023-03-26T21:30:33;8.60;99.90
12115;DHT22;6121;49.810;6.418;2023-03-26T21:32:59;8.50;99.90
12115;DHT22;6121;49.810;6.418;2023-03-26T21:35:25;8.60;99.90
12115;DHT22;6121;49.810;6.418;2023-03-26T21:37:51;8.70;99.90
12115;DHT22;6121;49.810;6.418;2023-03-26T21:40:18;8.60;99.90
12115;DHT22;6121;49.810;6.418;2023-03-26T21:42:47;8.60;99.90
12115;DHT22;6121;49.810;6.418;2023-03-26T21:45:13;8.60;99.90
12115;DHT22;6121;49.810;6.418;2023-03-26T21:47:40;8.70;99.90
12115;DHT22;6121;49.810;6.418;2023-03-26T21:50:07;8.70;99.90
12115;DHT22;6121;49.810;6.418;2023-03-26T21:52:33;8.60;99.90
12115;DHT22;6121;49.810;6.418;2023-03-26T21:55:00;8.50;99.90
12115;DHT22;6121;49.810;6.418;2023-03-26T22:00:14;8.50;99.90
12115;DHT22;6121;49.810;6.418;2023-03-26T22:02:57;8.50;99.90
12115;DHT22;6121;49.810;6.418;2023-03-26T22:08:31;8.40;99.90
12115;DHT22;6121;49.810;6.418;2023-03-26T22:10:57;8.30;99.90
12115;DHT22;6121;49.810;6.418;2023-03-26T22:13:24;8.30;99.90
12115;DHT22;6121;49.810;6.418;2023-03-26T22:15:50;8.30;99.90
12115;DHT22;6121;49.810;6.418;2023-03-26T22:18:15;8.20;99.90
12115;DHT22;6121;49.810;6.418;2023-03-26T22:20:46;8.30;99.90